sensor_id;sensor_type;location;lat;lon;timestamp;P1;durP1;ratioP1;P2;durP2;ratioP2
77018;SDS011;66044;53.142;17.962;2024-01-30T00:00:56;93.40;;;45.00;;
77018;SDS011;66044;53.142;17.962;2024-01-30T00:03:42;83.40;;;41.20;;
77018;SDS011;66044;53.142;17.962;2024-01-30T00:06:08;81.80;;;38.10;;
77018;SDS011;66044;53.142;17.962;2024-01-30T00:08:34;65.20;;;33.10;;
77018;SDS011;66044;53.142;17.962;2024-01-30T00:11:00;63.40;;;31.90;;
77018;SDS011;66044;53.142;17.962;2024-01-30T00:13:26;57.80;;;30.00;;
77018;SDS011;66044;53.142;17.962;2024-01-30T00:15:52;61.70;;;30.70;;
77018;SDS011;66044;53.142;17.962;2024-01-30T00:18:18;98.50;;;47.20;;
77018;SDS011;66044;53.142;17.962;2024-01-30T00:20:44;88.10;;;43.10;;
77018;SDS011;66044;53.142;17.962;2024-01-30T00:23:10;67.90;;;35.20;;
77018;SDS011;66044;53.142;17.962;2024-01-30T00:25:36;67.10;;;32.50;;
77018;SDS011;66044;53.142;17.962;2024-01-30T00:28:02;58.00;;;31.90;;
77018;SDS011;66044;53.142;17.962;2024-01-30T00:30:28;70.30;;;35.20;;
77018;SDS011;66044;53.142;17.962;2024-01-30T00:32:54;55.00;;;29.80;;
77018;SDS011;66044;53.142;17.962;2024-01-30T00:35:20;62.70;;;33.10;;
77018;SDS011;66044;53.142;17.962;2024-01-30T00:37:47;62.30;;;32.50;;
77018;SDS011;66044;53.142;17.962;2024-01-30T00:40:14;57.30;;;30.30;;
77018;SDS011;66044;53.142;17.962;2024-01-30T00:42:41;61.20;;;31.60;;
77018;SDS011;66044;53.142;17.962;2024-01-30T00:45:12;58.40;;;30.30;;
77018;SDS011;66044;53.142;17.962;2024-01-30T00:47:39;54.60;;;27.50;;
77018;SDS011;66044;53.142;17.962;2024-01-30T00:50:08;59.40;;;31.40;;
77018;SDS011;66044;53.142;17.962;2024-01-30T00:52:35;61.70;;;33.20;;
77018;SDS011;66044;53.142;17.962;2024-01-30T00:55:01;65.00;;;33.90;;
77018;SDS011;66044;53.142;17.962;2024-01-30T00:57:27;64.20;;;33.80;;
77018;SDS011;66044;53.142;17.962;2024-01-30T00:59:54;66.50;;;31.90;;
77018;SDS011;66044;53.142;17.962;2024-01-30T01:02:20;64.30;;;31.80;;
77018;SDS011;66044;53.142;17.962;2024-01-30T01:04:46;64.00;;;34.40;;
77018;SDS011;66044;53.142;17.962;2024-01-30T01:07:12;65.60;;;32.80;;
77018;SDS011;66044;53.142;17.962;2024-01-30T01:09:38;65.40;;;32.50;;
77018;SDS011;66044;53.142;17.962;2024-01-30T01:12:04;63.70;;;31.60;;
77018;SDS011;66044;53.142;17.962;2024-01-30T01:14:30;55.40;;;30.40;;
77018;SDS011;66044;53.142;17.962;2024-01-30T01:16:57;60.40;;;31.40;;
77018;SDS011;66044;53.142;17.962;2024-01-30T01:19:23;61.20;;;31.20;;
77018;SDS011;66044;53.142;17.962;2024-01-30T01:21:49;64.70;;;30.90;;
77018;SDS011;66044;53.142;17.962;2024-01-30T01:24:17;64.30;;;33.30;;
77018;SDS011;66044;53.142;17.962;2024-01-30T01:26:44;79.80;;;37.50;;
77018;SDS011;66044;53.142;17.962;2024-01-30T01:29:10;77.20;;;39.50;;
77018;SDS011;66044;53.142;17.962;2024-01-30T01:31:38;74.20;;;38.70;;
77018;SDS011;66044;53.142;17.962;2024-01-30T01:34:15;74.90;;;38.70;;
77018;SDS011;66044;53.142;17.962;2024-01-30T01:36:41;72.50;;;38.10;;
77018;SDS011;66044;53.142;17.962;2024-01-30T01:39:07;67.10;;;36.80;;
77018;SDS011;66044;53.142;17.962;2024-01-30T01:41:34;58.00;;;32.90;;
77018;SDS011;66044;53.142;17.962;2024-01-30T01:44:00;54.80;;;28.90;;
77018;SDS011;66044;53.142;17.962;2024-01-30T01:46:26;54.80;;;29.20;;
77018;SDS011;66044;53.142;17.962;2024-01-30T01:48:53;47.70;;;26.60;;
77018;SDS011;66044;53.142;17.962;2024-01-30T01:51:21;53.80;;;27.40;;
77018;SDS011;66044;53.142;17.962;2024-01-30T01:53:48;44.40;;;24.80;;
77018;SDS011;66044;53.142;17.962;2024-01-30T01:56:14;44.90;;;22.90;;
77018;SDS011;66044;53.142;17.962;2024-01-30T01:58:41;43.60;;;22.80;;
77018;SDS011;66044;53.142;17.962;2024-01-30T02:01:07;42.90;;;22.70;;
77018;SDS011;66044;53.142;17.962;2024-01-30T02:03:33;46.50;;;24.40;;
77018;SDS011;66044;53.142;17.962;2024-01-30T02:06:00;48.70;;;25.00;;
77018;SDS011;66044;53.142;17.962;2024-01-30T02:08:29;47.10;;;25.60;;
77018;SDS011;66044;53.142;17.962;2024-01-30T02:10:56;48.50;;;23.40;;
77018;SDS011;66044;53.142;17.962;2024-01-30T02:13:22;48.80;;;26.60;;
77018;SDS011;66044;53.142;17.962;2024-01-30T02:15:49;48.00;;;27.30;;
77018;SDS011;66044;53.142;17.962;2024-01-30T02:18:16;52.10;;;27.40;;
77018;SDS011;66044;53.142;17.962;2024-01-30T02:20:41;56.40;;;28.30;;
77018;SDS011;66044;53.142;17.962;2024-01-30T02:23:09;50.80;;;27.00;;
77018;SDS011;66044;53.142;17.962;2024-01-30T02:25:38;52.60;;;29.10;;
77018;SDS011;66044;53.142;17.962;2024-01-30T02:28:11;54.10;;;29.30;;
77018;SDS011;66044;53.142;17.962;2024-01-30T02:30:42;65.50;;;33.80;;
77018;SDS011;66044;53.142;17.962;2024-01-30T02:33:10;49.70;;;28.90;;
77018;SDS011;66044;53.142;17.962;2024-01-30T02:35:37;51.50;;;26.40;;
77018;SDS011;66044;53.142;17.962;2024-01-30T02:38:02;48.30;;;24.30;;
77018;SDS011;66044;53.142;17.962;2024-01-30T02:40:28;52.30;;;28.40;;
77018;SDS011;66044;53.142;17.962;2024-01-30T02:42:54;52.30;;;29.60;;
77018;SDS011;66044;53.142;17.962;2024-01-30T02:45:21;50.40;;;27.60;;
77018;SDS011;66044;53.142;17.962;2024-01-30T02:47:48;56.00;;;28.90;;
77018;SDS011;66044;53.142;17.962;2024-01-30T02:50:14;46.00;;;23.40;;
77018;SDS011;66044;53.142;17.962;2024-01-30T02:52:40;38.40;;;20.40;;
77018;SDS011;66044;53.142;17.962;2024-01-30T02:55:06;32.70;;;17.90;;
77018;SDS011;66044;53.142;17.962;2024-01-30T02:57:32;34.00;;;18.90;;
77018;SDS011;66044;53.142;17.962;2024-01-30T02:59:58;37.10;;;20.10;;
77018;SDS011;66044;53.142;17.962;2024-01-30T03:02:27;33.00;;;18.50;;
77018;SDS011;66044;53.142;17.962;2024-01-30T03:04:53;34.20;;;18.20;;
77018;SDS011;66044;53.142;17.962;2024-01-30T03:07:19;38.00;;;20.70;;
77018;SDS011;66044;53.142;17.962;2024-01-30T03:09:45;39.30;;;22.60;;
77018;SDS011;66044;53.142;17.962;2024-01-30T03:12:11;38.80;;;21.30;;
77018;SDS011;66044;53.142;17.962;2024-01-30T03:14:38;36.00;;;19.80;;
77018;SDS011;66044;53.142;17.962;2024-01-30T03:17:03;41.10;;;21.20;;
77018;SDS011;66044;53.142;17.962;2024-01-30T03:19:29;33.60;;;17.80;;
77018;SDS011;66044;53.142;17.962;2024-01-30T03:22:02;35.50;;;19.30;;
77018;SDS011;66044;53.142;17.962;2024-01-30T03:24:28;32.70;;;17.80;;
77018;SDS011;66044;53.142;17.962;2024-01-30T03:26:54;34.30;;;19.10;;
77018;SDS011;66044;53.142;17.962;2024-01-30T03:29:19;33.10;;;18.80;;
77018;SDS011;66044;53.142;17.962;2024-01-30T03:31:47;34.60;;;17.80;;
77018;SDS011;66044;53.142;17.962;2024-01-30T03:34:13;42.20;;;24.30;;
77018;SDS011;66044;53.142;17.962;2024-01-30T03:36:40;48.60;;;25.40;;
77018;SDS011;66044;53.142;17.962;2024-01-30T03:39:07;40.70;;;20.50;;
77018;SDS011;66044;53.142;17.962;2024-01-30T03:41:34;30.80;;;15.80;;
77018;SDS011;66044;53.142;17.962;2024-01-30T03:44:00;33.40;;;18.90;;
77018;SDS011;66044;53.142;17.962;2024-01-30T03:46:26;36.20;;;19.60;;
77018;SDS011;66044;53.142;17.962;2024-01-30T03:48:52;34.10;;;18.10;;
77018;SDS011;66044;53.142;17.962;2024-01-30T03:51:18;32.40;;;17.30;;
77018;SDS011;66044;53.142;17.962;2024-01-30T03:53:43;31.10;;;17.50;;
77018;SDS011;66044;53.142;17.962;2024-01-30T03:56:18;42.10;;;21.20;;
77018;SDS011;66044;53.142;17.962;2024-01-30T03:58:46;32.40;;;17.80;;
77018;SDS011;66044;53.142;17.962;2024-01-30T04:01:15;39.20;;;19.30;;
77018;SDS011;66044;53.142;17.962;2024-01-30T04:03:42;37.90;;;20.50;;
77018;SDS011;66044;53.142;17.962;2024-01-30T04:06:09;35.10;;;18.10;;
77018;SDS011;66044;53.142;17.962;2024-01-30T04:08:40;31.20;;;17.90;;
77018;SDS011;66044;53.142;17.962;2024-01-30T04:11:07;30.20;;;17.60;;
77018;SDS011;66044;53.142;17.962;2024-01-30T04:13:40;28.50;;;16.80;;
77018;SDS011;66044;53.142;17.962;2024-01-30T04:16:18;32.50;;;17.00;;
77018;SDS011;66044;53.142;17.962;2024-01-30T04:18:51;33.70;;;17.90;;
77018;SDS011;66044;53.142;17.962;2024-01-30T04:21:17;40.40;;;25.40;;
77018;SDS011;66044;53.142;17.962;2024-01-30T04:23:43;62.30;;;32.90;;
77018;SDS011;66044;53.142;17.962;2024-01-30T04:26:10;59.70;;;33.00;;
77018;SDS011;66044;53.142;17.962;2024-01-30T04:28:50;43.00;;;22.30;;
77018;SDS011;66044;53.142;17.962;2024-01-30T04:31:16;49.20;;;27.70;;
77018;SDS011;66044;53.142;17.962;2024-01-30T04:33:41;36.10;;;20.60;;
77018;SDS011;66044;53.142;17.962;2024-01-30T04:36:10;44.70;;;25.00;;
77018;SDS011;66044;53.142;17.962;2024-01-30T04:38:37;51.40;;;26.60;;
77018;SDS011;66044;53.142;17.962;2024-01-30T04:41:05;57.30;;;29.50;;
77018;SDS011;66044;53.142;17.962;2024-01-30T04:43:31;53.80;;;25.90;;
77018;SDS011;66044;53.142;17.962;2024-01-30T04:45:57;49.80;;;24.80;;
77018;SDS011;66044;53.142;17.962;2024-01-30T04:48:27;46.70;;;22.00;;
77018;SDS011;66044;53.142;17.962;2024-01-30T04:50:53;37.80;;;20.40;;
77018;SDS011;66044;53.142;17.962;2024-01-30T04:53:19;42.00;;;22.40;;
77018;SDS011;66044;53.142;17.962;2024-01-30T04:55:44;37.30;;;19.00;;
77018;SDS011;66044;53.142;17.962;2024-01-30T04:58:10;38.70;;;19.40;;
77018;SDS011;66044;53.142;17.962;2024-01-30T05:00:36;40.70;;;20.50;;
77018;SDS011;66044;53.142;17.962;2024-01-30T05:03:02;36.20;;;20.30;;
77018;SDS011;66044;53.142;17.962;2024-01-30T05:05:30;37.80;;;18.90;;
77018;SDS011;66044;53.142;17.962;2024-01-30T05:07:56;39.10;;;21.00;;
77018;SDS011;66044;53.142;17.962;2024-01-30T05:10:22;38.50;;;19.80;;
77018;SDS011;66044;53.142;17.962;2024-01-30T05:12:49;36.90;;;18.60;;
77018;SDS011;66044;53.142;17.962;2024-01-30T05:15:14;33.10;;;17.80;;
77018;SDS011;66044;53.142;17.962;2024-01-30T05:17:41;36.40;;;18.20;;
77018;SDS011;66044;53.142;17.962;2024-01-30T05:20:10;50.10;;;25.00;;
77018;SDS011;66044;53.142;17.962;2024-01-30T05:22:37;52.30;;;25.00;;
77018;SDS011;66044;53.142;17.962;2024-01-30T05:25:04;69.60;;;32.20;;
77018;SDS011;66044;53.142;17.962;2024-01-30T05:27:30;46.80;;;23.40;;
77018;SDS011;66044;53.142;17.962;2024-01-30T05:30:03;39.90;;;21.00;;
77018;SDS011;66044;53.142;17.962;2024-01-30T05:32:29;48.10;;;21.90;;
77018;SDS011;66044;53.142;17.962;2024-01-30T05:34:55;42.60;;;21.70;;
77018;SDS011;66044;53.142;17.962;2024-01-30T05:37:21;45.60;;;21.60;;
77018;SDS011;66044;53.142;17.962;2024-01-30T05:39:47;43.10;;;21.00;;
77018;SDS011;66044;53.142;17.962;2024-01-30T05:42:13;37.80;;;19.50;;
77018;SDS011;66044;53.142;17.962;2024-01-30T05:44:43;58.40;;;28.20;;
77018;SDS011;66044;53.142;17.962;2024-01-30T05:47:09;62.60;;;30.90;;
77018;SDS011;66044;53.142;17.962;2024-01-30T05:49:35;49.60;;;25.30;;
77018;SDS011;66044;53.142;17.962;2024-01-30T05:52:02;43.60;;;23.40;;
77018;SDS011;66044;53.142;17.962;2024-01-30T05:54:28;42.40;;;21.60;;
77018;SDS011;66044;53.142;17.962;2024-01-30T05:56:55;40.90;;;22.00;;
77018;SDS011;66044;53.142;17.962;2024-01-30T05:59:22;45.50;;;24.30;;
77018;SDS011;66044;53.142;17.962;2024-01-30T06:01:48;46.60;;;27.40;;
77018;SDS011;66044;53.142;17.962;2024-01-30T06:04:14;46.60;;;27.00;;
77018;SDS011;66044;53.142;17.962;2024-01-30T06:06:41;40.60;;;22.90;;
77018;SDS011;66044;53.142;17.962;2024-01-30T06:09:07;46.10;;;24.70;;
77018;SDS011;66044;53.142;17.962;2024-01-30T06:11:35;39.00;;;20.30;;
77018;SDS011;66044;53.142;17.962;2024-01-30T06:14:01;39.00;;;22.80;;
77018;SDS011;66044;53.142;17.962;2024-01-30T06:16:27;41.90;;;21.80;;
77018;SDS011;66044;53.142;17.962;2024-01-30T06:18:57;46.30;;;24.40;;
77018;SDS011;66044;53.142;17.962;2024-01-30T06:21:23;45.30;;;25.40;;
77018;SDS011;66044;53.142;17.962;2024-01-30T06:23:57;47.60;;;26.10;;
77018;SDS011;66044;53.142;17.962;2024-01-30T06:26:22;54.50;;;31.30;;
77018;SDS011;66044;53.142;17.962;2024-01-30T06:28:48;54.20;;;27.90;;
77018;SDS011;66044;53.142;17.962;2024-01-30T06:31:15;51.50;;;26.00;;
77018;SDS011;66044;53.142;17.962;2024-01-30T06:33:46;57.60;;;29.00;;
77018;SDS011;66044;53.142;17.962;2024-01-30T06:36:12;58.90;;;29.40;;
77018;SDS011;66044;53.142;17.962;2024-01-30T06:38:41;57.10;;;31.60;;
77018;SDS011;66044;53.142;17.962;2024-01-30T06:41:08;52.00;;;26.60;;
77018;SDS011;66044;53.142;17.962;2024-01-30T06:43:33;57.60;;;30.10;;
77018;SDS011;66044;53.142;17.962;2024-01-30T06:46:01;52.90;;;28.00;;
77018;SDS011;66044;53.142;17.962;2024-01-30T06:48:27;59.40;;;29.50;;
77018;SDS011;66044;53.142;17.962;2024-01-30T06:50:53;54.50;;;29.30;;
77018;SDS011;66044;53.142;17.962;2024-01-30T06:53:19;54.80;;;27.00;;
77018;SDS011;66044;53.142;17.962;2024-01-30T06:55:45;54.30;;;27.20;;
77018;SDS011;66044;53.142;17.962;2024-01-30T06:58:12;55.80;;;28.00;;
77018;SDS011;66044;53.142;17.962;2024-01-30T07:00:38;69.80;;;37.50;;
77018;SDS011;66044;53.142;17.962;2024-01-30T07:03:04;71.00;;;36.00;;
77018;SDS011;66044;53.142;17.962;2024-01-30T07:05:31;95.70;;;46.00;;
77018;SDS011;66044;53.142;17.962;2024-01-30T07:07:57;80.70;;;41.10;;
77018;SDS011;66044;53.142;17.962;2024-01-30T07:10:23;72.00;;;40.50;;
77018;SDS011;66044;53.142;17.962;2024-01-30T07:12:49;62.30;;;35.00;;
77018;SDS011;66044;53.142;17.962;2024-01-30T07:15:14;78.40;;;41.70;;
77018;SDS011;66044;53.142;17.962;2024-01-30T07:17:43;58.60;;;30.80;;
77018;SDS011;66044;53.142;17.962;2024-01-30T07:20:09;59.70;;;31.40;;
77018;SDS011;66044;53.142;17.962;2024-01-30T07:22:36;62.20;;;34.90;;
77018;SDS011;66044;53.142;17.962;2024-01-30T07:25:03;51.30;;;28.90;;
77018;SDS011;66044;53.142;17.962;2024-01-30T07:27:35;61.00;;;33.30;;
77018;SDS011;66044;53.142;17.962;2024-01-30T07:30:03;60.50;;;34.90;;
77018;SDS011;66044;53.142;17.962;2024-01-30T07:32:29;56.10;;;32.30;;
77018;SDS011;66044;53.142;17.962;2024-01-30T07:34:56;65.00;;;36.60;;
77018;SDS011;66044;53.142;17.962;2024-01-30T07:37:22;61.60;;;34.10;;
77018;SDS011;66044;53.142;17.962;2024-01-30T07:39:48;51.70;;;30.20;;
77018;SDS011;66044;53.142;17.962;2024-01-30T07:42:14;53.10;;;31.40;;
77018;SDS011;66044;53.142;17.962;2024-01-30T07:44:40;55.30;;;30.60;;
77018;SDS011;66044;53.142;17.962;2024-01-30T07:47:07;59.50;;;32.00;;
77018;SDS011;66044;53.142;17.962;2024-01-30T07:49:33;57.40;;;31.80;;
77018;SDS011;66044;53.142;17.962;2024-01-30T07:51:59;58.60;;;33.00;;
77018;SDS011;66044;53.142;17.962;2024-01-30T07:54:25;53.40;;;30.50;;
77018;SDS011;66044;53.142;17.962;2024-01-30T07:56:51;60.60;;;34.80;;
77018;SDS011;66044;53.142;17.962;2024-01-30T07:59:16;57.80;;;33.60;;
77018;SDS011;66044;53.142;17.962;2024-01-30T08:01:42;54.40;;;31.30;;
77018;SDS011;66044;53.142;17.962;2024-01-30T08:04:08;54.10;;;32.80;;
77018;SDS011;66044;53.142;17.962;2024-01-30T08:06:35;56.80;;;32.90;;
77018;SDS011;66044;53.142;17.962;2024-01-30T08:09:00;61.10;;;35.10;;
77018;SDS011;66044;53.142;17.962;2024-01-30T08:11:26;61.10;;;35.20;;
77018;SDS011;66044;53.142;17.962;2024-01-30T08:13:55;63.20;;;35.90;;
77018;SDS011;66044;53.142;17.962;2024-01-30T08:16:21;63.20;;;37.60;;
77018;SDS011;66044;53.142;17.962;2024-01-30T08:18:47;53.90;;;33.00;;
77018;SDS011;66044;53.142;17.962;2024-01-30T08:21:16;58.30;;;32.40;;
77018;SDS011;66044;53.142;17.962;2024-01-30T08:23:43;55.90;;;31.60;;
77018;SDS011;66044;53.142;17.962;2024-01-30T08:26:11;54.70;;;31.60;;
77018;SDS011;66044;53.142;17.962;2024-01-30T08:28:37;52.10;;;31.50;;
77018;SDS011;66044;53.142;17.962;2024-01-30T08:31:03;51.80;;;33.00;;
77018;SDS011;66044;53.142;17.962;2024-01-30T08:33:30;51.50;;;30.50;;
77018;SDS011;66044;53.142;17.962;2024-01-30T08:35:57;54.70;;;31.20;;
77018;SDS011;66044;53.142;17.962;2024-01-30T08:38:26;53.40;;;29.70;;
77018;SDS011;66044;53.142;17.962;2024-01-30T08:40:53;49.10;;;27.60;;
77018;SDS011;66044;53.142;17.962;2024-01-30T08:43:22;47.60;;;25.30;;
77018;SDS011;66044;53.142;17.962;2024-01-30T08:45:48;43.00;;;23.30;;
77018;SDS011;66044;53.142;17.962;2024-01-30T08:48:22;34.40;;;17.70;;
77018;SDS011;66044;53.142;17.962;2024-01-30T08:50:48;31.30;;;17.60;;
77018;SDS011;66044;53.142;17.962;2024-01-30T08:53:14;34.50;;;18.40;;
77018;SDS011;66044;53.142;17.962;2024-01-30T08:55:41;27.50;;;16.20;;
77018;SDS011;66044;53.142;17.962;2024-01-30T08:58:06;30.80;;;16.90;;
77018;SDS011;66044;53.142;17.962;2024-01-30T09:00:33;25.10;;;13.70;;
77018;SDS011;66044;53.142;17.962;2024-01-30T09:03:00;25.50;;;13.50;;
77018;SDS011;66044;53.142;17.962;2024-01-30T09:05:27;28.10;;;14.30;;
77018;SDS011;66044;53.142;17.962;2024-01-30T09:07:53;20.60;;;11.40;;
77018;SDS011;66044;53.142;17.962;2024-01-30T09:10:19;25.10;;;14.10;;
77018;SDS011;66044;53.142;17.962;2024-01-30T09:12:45;21.70;;;12.30;;
77018;SDS011;66044;53.142;17.962;2024-01-30T09:15:12;22.20;;;12.30;;
77018;SDS011;66044;53.142;17.962;2024-01-30T09:17:39;20.10;;;11.10;;
77018;SDS011;66044;53.142;17.962;2024-01-30T09:20:07;21.40;;;11.90;;
77018;SDS011;66044;53.142;17.962;2024-01-30T09:22:34;20.70;;;11.70;;
77018;SDS011;66044;53.142;17.962;2024-01-30T09:25:00;21.80;;;12.40;;
77018;SDS011;66044;53.142;17.962;2024-01-30T09:27:26;20.20;;;10.40;;
77018;SDS011;66044;53.142;17.962;2024-01-30T09:29:52;21.90;;;11.80;;
77018;SDS011;66044;53.142;17.962;2024-01-30T09:32:20;21.70;;;12.00;;
77018;SDS011;66044;53.142;17.962;2024-01-30T09:34:45;23.10;;;11.80;;
77018;SDS011;66044;53.142;17.962;2024-01-30T09:37:11;21.80;;;11.60;;
77018;SDS011;66044;53.142;17.962;2024-01-30T09:39:37;22.20;;;11.40;;
77018;SDS011;66044;53.142;17.962;2024-01-30T09:42:18;25.70;;;14.60;;
77018;SDS011;66044;53.142;17.962;2024-01-30T09:45:02;28.30;;;13.90;;
77018;SDS011;66044;53.142;17.962;2024-01-30T09:47:46;18.30;;;9.10;;
77018;SDS011;66044;53.142;17.962;2024-01-30T09:50:20;18.90;;;10.60;;
77018;SDS011;66044;53.142;17.962;2024-01-30T09:52:49;24.30;;;12.60;;
77018;SDS011;66044;53.142;17.962;2024-01-30T09:55:16;25.90;;;14.10;;
77018;SDS011;66044;53.142;17.962;2024-01-30T09:57:42;22.40;;;11.80;;
77018;SDS011;66044;53.142;17.962;2024-01-30T10:00:09;27.70;;;14.80;;
77018;SDS011;66044;53.142;17.962;2024-01-30T10:02:36;29.20;;;16.00;;
77018;SDS011;66044;53.142;17.962;2024-01-30T10:05:03;27.90;;;13.50;;
77018;SDS011;66044;53.142;17.962;2024-01-30T10:07:29;22.90;;;11.50;;
77018;SDS011;66044;53.142;17.962;2024-01-30T10:09:56;22.40;;;12.10;;
77018;SDS011;66044;53.142;17.962;2024-01-30T10:12:22;24.30;;;12.00;;
77018;SDS011;66044;53.142;17.962;2024-01-30T10:14:51;17.60;;;9.90;;
77018;SDS011;66044;53.142;17.962;2024-01-30T10:17:17;20.50;;;9.50;;
77018;SDS011;66044;53.142;17.962;2024-01-30T10:19:42;21.50;;;10.90;;
77018;SDS011;66044;53.142;17.962;2024-01-30T10:22:09;19.30;;;10.30;;
77018;SDS011;66044;53.142;17.962;2024-01-30T10:24:35;20.80;;;11.00;;
77018;SDS011;66044;53.142;17.962;2024-01-30T10:27:01;17.80;;;9.60;;
77018;SDS011;66044;53.142;17.962;2024-01-30T10:29:27;15.60;;;8.30;;
77018;SDS011;66044;53.142;17.962;2024-01-30T10:32:03;15.60;;;8.50;;
77018;SDS011;66044;53.142;17.962;2024-01-30T10:34:31;16.90;;;8.80;;
77018;SDS011;66044;53.142;17.962;2024-01-30T10:37:07;19.50;;;9.00;;
77018;SDS011;66044;53.142;17.962;2024-01-30T10:39:38;15.90;;;8.80;;
77018;SDS011;66044;53.142;17.962;2024-01-30T10:42:06;14.20;;;7.90;;
77018;SDS011;66044;53.142;17.962;2024-01-30T10:44:36;17.00;;;8.60;;
77018;SDS011;66044;53.142;17.962;2024-01-30T10:47:12;15.50;;;7.40;;
77018;SDS011;66044;53.142;17.962;2024-01-30T10:49:40;15.40;;;8.90;;
77018;SDS011;66044;53.142;17.962;2024-01-30T10:52:08;17.70;;;9.10;;
77018;SDS011;66044;53.142;17.962;2024-01-30T10:54:39;13.70;;;8.00;;
77018;SDS011;66044;53.142;17.962;2024-01-30T10:57:10;16.00;;;9.10;;
77018;SDS011;66044;53.142;17.962;2024-01-30T10:59:38;14.80;;;8.70;;
77018;SDS011;66044;53.142;17.962;2024-01-30T11:02:11;13.60;;;7.50;;
77018;SDS011;66044;53.142;17.962;2024-01-30T11:04:37;14.70;;;7.80;;
77018;SDS011;66044;53.142;17.962;2024-01-30T11:07:24;17.10;;;8.50;;
77018;SDS011;66044;53.142;17.962;2024-01-30T11:12:28;13.50;;;7.50;;
77018;SDS011;66044;53.142;17.962;2024-01-30T11:15:05;14.50;;;7.60;;
77018;SDS011;66044;53.142;17.962;2024-01-30T11:20:15;17.70;;;9.20;;
77018;SDS011;66044;53.142;17.962;2024-01-30T11:22:45;19.90;;;9.30;;
77018;SDS011;66044;53.142;17.962;2024-01-30T11:25:17;18.70;;;9.60;;
77018;SDS011;66044;53.142;17.962;2024-01-30T11:27:52;20.40;;;9.70;;
77018;SDS011;66044;53.142;17.962;2024-01-30T11:35:37;17.30;;;8.60;;
77018;SDS011;66044;53.142;17.962;2024-01-30T11:38:08;17.20;;;8.90;;
77018;SDS011;66044;53.142;17.962;2024-01-30T11:40:42;20.00;;;9.70;;
77018;SDS011;66044;53.142;17.962;2024-01-30T11:43:10;21.30;;;10.10;;
77018;SDS011;66044;53.142;17.962;2024-01-30T11:45:37;19.00;;;9.20;;
77018;SDS011;66044;53.142;17.962;2024-01-30T11:48:03;16.40;;;8.40;;
77018;SDS011;66044;53.142;17.962;2024-01-30T11:50:30;18.70;;;7.90;;
77018;SDS011;66044;53.142;17.962;2024-01-30T11:53:00;17.40;;;9.30;;
77018;SDS011;66044;53.142;17.962;2024-01-30T11:55:30;16.50;;;8.40;;
77018;SDS011;66044;53.142;17.962;2024-01-30T11:57:57;19.80;;;10.20;;
77018;SDS011;66044;53.142;17.962;2024-01-30T12:00:29;17.70;;;8.90;;
77018;SDS011;66044;53.142;17.962;2024-01-30T12:03:00;15.30;;;8.30;;
77018;SDS011;66044;53.142;17.962;2024-01-30T12:05:35;17.60;;;8.40;;
77018;SDS011;66044;53.142;17.962;2024-01-30T12:08:02;16.10;;;8.50;;
77018;SDS011;66044;53.142;17.962;2024-01-30T12:10:28;15.80;;;8.20;;
77018;SDS011;66044;53.142;17.962;2024-01-30T12:12:54;13.70;;;7.10;;
77018;SDS011;66044;53.142;17.962;2024-01-30T12:15:21;15.90;;;8.20;;
77018;SDS011;66044;53.142;17.962;2024-01-30T12:17:48;17.30;;;7.50;;
77018;SDS011;66044;53.142;17.962;2024-01-30T12:20:15;14.10;;;7.80;;
77018;SDS011;66044;53.142;17.962;2024-01-30T12:22:44;14.40;;;7.20;;
77018;SDS011;66044;53.142;17.962;2024-01-30T12:25:14;14.50;;;7.70;;
77018;SDS011;66044;53.142;17.962;2024-01-30T12:27:42;15.30;;;7.70;;
77018;SDS011;66044;53.142;17.962;2024-01-30T12:30:11;15.80;;;7.10;;
77018;SDS011;66044;53.142;17.962;2024-01-30T12:32:40;15.70;;;7.60;;
77018;SDS011;66044;53.142;17.962;2024-01-30T12:35:09;13.50;;;7.00;;
77018;SDS011;66044;53.142;17.962;2024-01-30T12:37:36;16.60;;;8.10;;
77018;SDS011;66044;53.142;17.962;2024-01-30T12:40:03;12.80;;;6.90;;
77018;SDS011;66044;53.142;17.962;2024-01-30T12:42:33;12.70;;;6.10;;
77018;SDS011;66044;53.142;17.962;2024-01-30T12:45:04;14.40;;;6.90;;
77018;SDS011;66044;53.142;17.962;2024-01-30T12:47:31;12.90;;;6.00;;
77018;SDS011;66044;53.142;17.962;2024-01-30T12:49:57;15.50;;;6.50;;
77018;SDS011;66044;53.142;17.962;2024-01-30T12:52:24;16.50;;;7.80;;
77018;SDS011;66044;53.142;17.962;2024-01-30T12:54:51;13.30;;;7.20;;
77018;SDS011;66044;53.142;17.962;2024-01-30T12:57:17;15.40;;;7.70;;
77018;SDS011;66044;53.142;17.962;2024-01-30T12:59:44;17.80;;;8.90;;
77018;SDS011;66044;53.142;17.962;2024-01-30T13:02:14;21.20;;;10.30;;
77018;SDS011;66044;53.142;17.962;2024-01-30T13:04:41;18.10;;;10.00;;
77018;SDS011;66044;53.142;17.962;2024-01-30T13:07:07;20.00;;;9.70;;
77018;SDS011;66044;53.142;17.962;2024-01-30T13:09:33;17.30;;;9.50;;
77018;SDS011;66044;53.142;17.962;2024-01-30T13:11:59;17.00;;;8.20;;
77018;SDS011;66044;53.142;17.962;2024-01-30T13:14:26;15.30;;;7.40;;
77018;SDS011;66044;53.142;17.962;2024-01-30T13:16:52;12.60;;;7.20;;
77018;SDS011;66044;53.142;17.962;2024-01-30T13:19:18;17.40;;;8.10;;
77018;SDS011;66044;53.142;17.962;2024-01-30T13:21:44;17.50;;;7.90;;
77018;SDS011;66044;53.142;17.962;2024-01-30T13:24:11;15.70;;;7.20;;
77018;SDS011;66044;53.142;17.962;2024-01-30T13:26:39;15.80;;;7.90;;
77018;SDS011;66044;53.142;17.962;2024-01-30T13:29:05;15.20;;;7.60;;
77018;SDS011;66044;53.142;17.962;2024-01-30T13:31:31;18.70;;;7.80;;
77018;SDS011;66044;53.142;17.962;2024-01-30T13:33:57;16.90;;;6.90;;
77018;SDS011;66044;53.142;17.962;2024-01-30T13:36:23;14.40;;;7.20;;
77018;SDS011;66044;53.142;17.962;2024-01-30T13:38:50;16.90;;;7.60;;
77018;SDS011;66044;53.142;17.962;2024-01-30T13:41:19;13.70;;;6.70;;
77018;SDS011;66044;53.142;17.962;2024-01-30T13:43:46;17.00;;;7.90;;
77018;SDS011;66044;53.142;17.962;2024-01-30T13:46:12;17.00;;;8.30;;
77018;SDS011;66044;53.142;17.962;2024-01-30T13:48:39;14.50;;;6.90;;
77018;SDS011;66044;53.142;17.962;2024-01-30T13:51:05;13.10;;;7.50;;
77018;SDS011;66044;53.142;17.962;2024-01-30T13:53:31;15.90;;;8.30;;
77018;SDS011;66044;53.142;17.962;2024-01-30T13:55:57;14.80;;;8.10;;
77018;SDS011;66044;53.142;17.962;2024-01-30T13:58:23;17.30;;;7.50;;
77018;SDS011;66044;53.142;17.962;2024-01-30T14:00:49;17.50;;;6.80;;
77018;SDS011;66044;53.142;17.962;2024-01-30T14:03:15;14.50;;;7.80;;
77018;SDS011;66044;53.142;17.962;2024-01-30T14:05:41;17.20;;;7.10;;
77018;SDS011;66044;53.142;17.962;2024-01-30T14:08:07;17.10;;;8.40;;
77018;SDS011;66044;53.142;17.962;2024-01-30T14:10:34;19.20;;;9.60;;
77018;SDS011;66044;53.142;17.962;2024-01-30T14:13:00;16.50;;;8.50;;
77018;SDS011;66044;53.142;17.962;2024-01-30T14:15:26;16.00;;;8.30;;
77018;SDS011;66044;53.142;17.962;2024-01-30T14:17:52;14.70;;;7.70;;
77018;SDS011;66044;53.142;17.962;2024-01-30T14:20:18;20.70;;;9.00;;
77018;SDS011;66044;53.142;17.962;2024-01-30T14:22:45;16.90;;;8.70;;